Time;durP1;ratioP1;P1;durP2;ratioP2;P2;SDS_P1;SDS_P2;PMS_P1;PMS_P2;Temp;Humidity;BMP_temperature;BMP_pressure;BME280_temperature;BME280_humidity;BME280_pressure;Samples;Min_cycle;Max_cycle;Signal;HPM_P1;HPM_P2
2023/06/28 00:00:49;;;;;;;1.00;1.00;;;;;;;;;;6188511;23;20261;-87
2023/06/28 00:03:18;;;;;;;0.85;0.80;;;;;;;;;;6188421;23;20221;-87
2023/06/28 00:05:46;;;;;;;1.73;0.93;;;;;;;;;;6188653;23;20179;-87
2023/06/28 00:08:14;;;;;;;1.98;0.90;;;;;;;;;;6188415;23;20507;-86
2023/06/28 00:10:41;;;;;;;0.82;0.82;;;;;;;;;;6189552;23;20178;-86
2023/06/28 00:13:08;;;;;;;1.02;0.90;;;;;;;;;;6189449;23;20213;-87
2023/06/28 00:15:36;;;;;;;0.88;0.80;;;;;;;;;;6188874;23;20202;-87
2023/06/28 00:18:04;;;;;;;1.30;0.90;;;;;;;;;;6189697;23;20191;-87
2023/06/28 00:20:32;;;;;;;1.83;0.90;;;;;;;;;;6189273;23;20197;-87
2023/06/28 00:23:01;;;;;;;1.02;1.02;;;;;;;;;;6190954;23;20258;-87
2023/06/28 00:25:28;;;;;;;1.00;1.00;;;;;;;;;;6190915;23;20306;-87
2023/06/28 00:27:56;;;;;;;2.00;0.82;;;;;;;;;;6190245;23;20226;-87
2023/06/28 00:30:23;;;;;;;2.35;1.00;;;;;;;;;;6190261;23;20566;-87
2023/06/28 00:32:52;;;;;;;1.55;0.90;;;;;;;;;;6191282;23;20249;-87
2023/06/28 00:35:19;;;;;;;1.27;1.00;;;;;;;;;;6190807;23;20628;-87
2023/06/28 00:37:48;;;;;;;2.20;1.00;;;;;;;;;;6190240;23;20209;-87
2023/06/28 00:40:15;;;;;;;2.20;1.02;;;;;;;;;;6189933;23;20253;-87
2023/06/28 00:42:43;;;;;;;2.00;0.80;;;;;;;;;;6189714;23;20241;-87
2023/06/28 00:45:14;;;;;;;1.33;1.10;;;;;;;;;;6190146;23;20209;-87
2023/06/28 00:47:42;;;;;;;1.13;1.02;;;;;;;;;;6189957;23;20245;-86
2023/06/28 00:50:11;;;;;;;2.85;1.10;;;;;;;;;;6190675;23;20234;-87
2023/06/28 00:52:39;;;;;;;2.08;0.90;;;;;;;;;;6190790;23;20672;-86
2023/06/28 00:55:08;;;;;;;1.67;1.58;;;;;;;;;;6189710;23;20253;-86
2023/06/28 00:57:36;;;;;;;1.15;1.05;;;;;;;;;;6188904;23;20269;-86
2023/06/28 01:00:08;;;;;;;1.10;1.00;;;;;;;;;;6189606;23;20551;-86
2023/06/28 01:02:41;;;;;;;0.90;0.90;;;;;;;;;;6189960;23;20162;-86
2023/06/28 01:05:09;;;;;;;1.55;1.10;;;;;;;;;;6190221;23;20630;-87
2023/06/28 01:07:38;;;;;;;1.00;0.80;;;;;;;;;;6190127;23;20252;-86
2023/06/28 01:10:08;;;;;;;1.42;1.02;;;;;;;;;;6190554;23;20209;-86
2023/06/28 01:12:36;;;;;;;1.15;0.98;;;;;;;;;;6189963;23;20213;-87
2023/06/28 01:15:04;;;;;;;1.63;0.98;;;;;;;;;;6190680;23;20244;-87
2023/06/28 01:17:31;;;;;;;0.90;0.90;;;;;;;;;;6190035;23;20413;-86
2023/06/28 01:19:59;;;;;;;2.42;1.20;;;;;;;;;;6190231;23;20198;-87
2023/06/28 01:22:27;;;;;;;1.23;1.00;;;;;;;;;;6190294;23;20245;-86
2023/06/28 01:24:56;;;;;;;0.88;0.88;;;;;;;;;;6190162;23;20225;-87
2023/06/28 01:27:24;;;;;;;1.23;1.13;;;;;;;;;;6189065;23;20217;-87
2023/06/28 01:29:56;;;;;;;1.50;1.20;;;;;;;;;;6190100;23;20185;-87
2023/06/28 01:32:24;;;;;;;1.45;1.33;;;;;;;;;;6190087;23;20159;-86
2023/06/28 01:34:51;;;;;;;3.40;1.13;;;;;;;;;;6190320;23;20186;-87
2023/06/28 01:37:20;;;;;;;1.65;1.35;;;;;;;;;;6189624;23;20229;-86
2023/06/28 01:39:48;;;;;;;2.03;1.33;;;;;;;;;;6189882;23;20229;-86
2023/06/28 01:42:18;;;;;;;2.30;1.58;;;;;;;;;;6189303;23;20254;-87
2023/06/28 01:44:45;;;;;;;1.52;1.13;;;;;;;;;;6189849;23;20226;-86
2023/06/28 01:47:13;;;;;;;1.50;1.13;;;;;;;;;;6189556;23;20178;-87
2023/06/28 01:49:40;;;;;;;1.58;1.40;;;;;;;;;;6190236;23;20167;-86
2023/06/28 01:52:08;;;;;;;2.92;1.10;;;;;;;;;;6190202;23;20201;-86
2023/06/28 01:54:36;;;;;;;1.20;1.10;;;;;;;;;;6189425;23;20174;-88
2023/06/28 01:57:05;;;;;;;1.88;1.65;;;;;;;;;;6188222;23;20274;-87
2023/06/28 01:59:34;;;;;;;1.17;1.17;;;;;;;;;;6189314;23;20253;-86
2023/06/28 02:02:01;;;;;;;1.90;1.13;;;;;;;;;;6189717;23;20201;-87
2023/06/28 02:04:29;;;;;;;2.13;1.35;;;;;;;;;;6189751;23;20226;-87
2023/06/28 02:06:56;;;;;;;1.52;1.30;;;;;;;;;;6191705;23;20653;-87
2023/06/28 02:09:24;;;;;;;1.25;1.20;;;;;;;;;;6189821;23;20171;-86
2023/06/28 02:11:51;;;;;;;1.95;1.30;;;;;;;;;;6189843;23;20182;-87
2023/06/28 02:14:19;;;;;;;1.48;1.08;;;;;;;;;;6189864;23;20182;-87
2023/06/28 02:16:48;;;;;;;1.20;1.10;;;;;;;;;;6189326;23;20198;-87
2023/06/28 02:19:16;;;;;;;1.70;1.30;;;;;;;;;;6190246;23;20175;-87
2023/06/28 02:21:43;;;;;;;1.88;1.73;;;;;;;;;;6189349;23;20188;-87
2023/06/28 02:24:11;;;;;;;1.85;1.75;;;;;;;;;;6189290;23;20174;-87
2023/06/28 02:26:38;;;;;;;1.70;1.25;;;;;;;;;;6188988;23;20273;-87
2023/06/28 02:29:06;;;;;;;0.88;0.88;;;;;;;;;;6189690;23;20257;-87
2023/06/28 02:31:33;;;;;;;1.80;1.35;;;;;;;;;;6188446;23;20230;-87
2023/06/28 02:34:02;;;;;;;1.25;1.15;;;;;;;;;;6188615;23;20585;-87
2023/06/28 02:36:30;;;;;;;1.55;1.20;;;;;;;;;;6188728;23;20194;-87
2023/06/28 02:38:57;;;;;;;3.13;1.55;;;;;;;;;;6188897;23;20190;-87
2023/06/28 02:41:25;;;;;;;1.35;1.25;;;;;;;;;;6188382;23;20190;-87
2023/06/28 02:43:52;;;;;;;1.33;1.23;;;;;;;;;;6188428;23;20206;-87
2023/06/28 02:46:19;;;;;;;2.13;1.42;;;;;;;;;;6187957;23;20230;-88
2023/06/28 02:48:47;;;;;;;1.98;1.00;;;;;;;;;;6187588;23;20261;-87
2023/06/28 02:51:16;;;;;;;1.88;1.45;;;;;;;;;;6187872;23;20174;-87
2023/06/28 02:53:43;;;;;;;1.20;1.00;;;;;;;;;;6188546;23;20258;-87
2023/06/28 02:56:13;;;;;;;2.30;1.20;;;;;;;;;;6188353;23;20531;-87
2023/06/28 02:58:40;;;;;;;1.23;1.13;;;;;;;;;;6188950;23;20225;-87
2023/06/28 03:01:09;;;;;;;0.93;0.90;;;;;;;;;;6187682;23;20182;-87
2023/06/28 03:03:36;;;;;;;1.63;1.00;;;;;;;;;;6188563;23;20194;-87
2023/06/28 03:06:04;;;;;;;1.88;1.35;;;;;;;;;;6187971;23;20523;-87
2023/06/28 03:08:33;;;;;;;1.20;1.10;;;;;;;;;;6188017;23;20254;-87
2023/06/28 03:11:01;;;;;;;1.73;1.17;;;;;;;;;;6188276;23;20568;-87
2023/06/28 03:13:28;;;;;;;2.78;1.20;;;;;;;;;;6188912;23;20178;-87
2023/06/28 03:15:56;;;;;;;0.90;0.90;;;;;;;;;;6188266;23;20206;-87
2023/06/28 03:18:23;;;;;;;3.03;1.50;;;;;;;;;;6188934;23;20253;-86
2023/06/28 03:20:51;;;;;;;1.60;1.50;;;;;;;;;;6188570;23;20257;-87
2023/06/28 03:23:18;;;;;;;1.30;1.20;;;;;;;;;;6188578;23;20178;-87
2023/06/28 03:25:47;;;;;;;1.15;0.95;;;;;;;;;;6188929;23;20284;-86
2023/06/28 03:28:16;;;;;;;1.42;1.08;;;;;;;;;;6188932;23;20178;-87
2023/06/28 03:30:43;;;;;;;1.30;1.20;;;;;;;;;;6189301;23;20257;-87
2023/06/28 03:33:11;;;;;;;1.17;1.08;;;;;;;;;;6189075;23;20162;-87
2023/06/28 03:35:38;;;;;;;1.00;0.90;;;;;;;;;;6188655;23;20229;-87
2023/06/28 03:38:06;;;;;;;0.95;0.95;;;;;;;;;;6189197;23;20186;-87
2023/06/28 03:40:33;;;;;;;0.60;0.60;;;;;;;;;;6188072;23;20170;-88
2023/06/28 03:43:02;;;;;;;1.10;1.00;;;;;;;;;;6187984;23;20261;-87
2023/06/28 03:45:30;;;;;;;0.80;0.80;;;;;;;;;;6189188;23;20218;-87
2023/06/28 03:47:57;;;;;;;0.90;0.90;;;;;;;;;;6188694;23;20274;-87
2023/06/28 03:50:25;;;;;;;0.88;0.88;;;;;;;;;;6188246;23;20202;-87
2023/06/28 03:52:52;;;;;;;1.15;1.15;;;;;;;;;;6188369;23;20258;-87
2023/06/28 03:55:20;;;;;;;0.75;0.75;;;;;;;;;;6189596;23;20201;-87
2023/06/28 03:57:47;;;;;;;0.70;0.70;;;;;;;;;;6191459;23;20233;-87
2023/06/28 04:00:17;;;;;;;0.70;0.70;;;;;;;;;;6190894;23;20212;-87
2023/06/28 04:02:45;;;;;;;1.00;1.00;;;;;;;;;;6191238;23;20174;-87
2023/06/28 04:05:12;;;;;;;1.05;0.88;;;;;;;;;;6190743;23;20294;-87
2023/06/28 04:07:40;;;;;;;1.08;0.98;;;;;;;;;;6190165;23;20190;-87
2023/06/28 04:10:09;;;;;;;0.90;0.90;;;;;;;;;;6190274;23;20209;-87
2023/06/28 04:12:37;;;;;;;1.38;0.90;;;;;;;;;;6190011;23;20190;-86
2023/06/28 04:15:07;;;;;;;1.10;1.00;;;;;;;;;;6190589;23;20253;-87
2023/06/28 04:17:36;;;;;;;1.02;0.93;;;;;;;;;;6190430;23;20201;-86
2023/06/28 04:20:06;;;;;;;1.20;1.17;;;;;;;;;;6190319;23;20179;-87
2023/06/28 04:22:33;;;;;;;1.00;1.00;;;;;;;;;;6190631;23;20194;-87
2023/06/28 04:25:01;;;;;;;1.48;1.17;;;;;;;;;;6190466;23;20178;-86
2023/06/28 04:27:28;;;;;;;1.42;1.30;;;;;;;;;;6189901;23;20209;-87
2023/06/28 04:29:56;;;;;;;1.00;1.00;;;;;;;;;;6190001;23;20222;-87
2023/06/28 04:32:25;;;;;;;0.93;0.93;;;;;;;;;;6190214;23;20205;-87
2023/06/28 04:34:55;;;;;;;2.83;2.33;;;;;;;;;;6189260;23;20174;-87
2023/06/28 04:37:27;;;;;;;1.77;1.40;;;;;;;;;;6187786;23;20230;-87
2023/06/28 04:39:55;;;;;;;1.70;1.60;;;;;;;;;;6188760;23;20194;-87
2023/06/28 04:42:22;;;;;;;2.00;1.27;;;;;;;;;;6190222;23;20158;-87
2023/06/28 04:44:50;;;;;;;1.15;1.15;;;;;;;;;;6189851;23;20178;-86
2023/06/28 04:47:18;;;;;;;2.83;1.50;;;;;;;;;;6189837;23;20198;-87
2023/06/28 04:49:48;;;;;;;1.65;1.55;;;;;;;;;;6190781;23;20643;-86
2023/06/28 04:52:18;;;;;;;0.95;0.95;;;;;;;;;;6190641;23;20206;-87
2023/06/28 04:54:46;;;;;;;1.20;1.10;;;;;;;;;;6189678;23;20163;-87
2023/06/28 04:57:15;;;;;;;0.90;0.90;;;;;;;;;;6189878;23;20268;-88
2023/06/28 04:59:44;;;;;;;1.50;1.20;;;;;;;;;;6190323;23;20257;-87
2023/06/28 05:02:11;;;;;;;1.50;1.40;;;;;;;;;;6190091;23;20230;-87
2023/06/28 05:04:39;;;;;;;1.77;1.23;;;;;;;;;;6189878;23;20225;-87
2023/06/28 05:07:09;;;;;;;2.92;1.45;;;;;;;;;;6188187;23;20198;-87
2023/06/28 05:09:39;;;;;;;1.00;1.00;;;;;;;;;;6191060;23;20170;-87
2023/06/28 05:12:07;;;;;;;1.92;1.30;;;;;;;;;;6189790;23;20209;-86
2023/06/28 05:14:35;;;;;;;1.92;1.17;;;;;;;;;;6189175;23;20178;-86
2023/06/28 05:17:02;;;;;;;1.85;1.63;;;;;;;;;;6189061;23;20636;-87
2023/06/28 05:19:30;;;;;;;1.30;1.20;;;;;;;;;;6189026;23;20269;-87
2023/06/28 05:21:57;;;;;;;2.78;1.55;;;;;;;;;;6189994;23;20708;-86
2023/06/28 05:24:25;;;;;;;1.42;1.33;;;;;;;;;;6189639;23;20242;-87
2023/06/28 05:26:54;;;;;;;1.63;1.40;;;;;;;;;;6186715;23;20281;-87
2023/06/28 05:29:21;;;;;;;1.45;1.27;;;;;;;;;;6190132;23;20241;-87
2023/06/28 05:31:49;;;;;;;1.90;1.75;;;;;;;;;;6187826;23;20179;-87
2023/06/28 05:34:17;;;;;;;1.27;1.23;;;;;;;;;;6188000;23;20174;-87
2023/06/28 05:36:44;;;;;;;2.53;1.55;;;;;;;;;;6218693;22;20255;-84
2023/06/28 05:39:12;;;;;;;1.50;1.40;;;;;;;;;;6244074;23;20252;-84
2023/06/28 05:41:39;;;;;;;2.00;1.50;;;;;;;;;;6245373;23;20259;-88
2023/06/28 05:44:08;;;;;;;1.70;1.60;;;;;;;;;;6246029;23;20164;-89
2023/06/28 05:46:37;;;;;;;1.73;1.23;;;;;;;;;;6262197;22;20276;-88
2023/06/28 05:49:09;;;;;;;1.63;1.40;;;;;;;;;;6276043;22;20251;-89
2023/06/28 05:51:43;;;;;;;1.30;1.20;;;;;;;;;;6275896;22;20236;-88
2023/06/28 05:54:11;;;;;;;1.67;1.38;;;;;;;;;;6276607;22;20191;-89
2023/06/28 05:56:38;;;;;;;1.73;1.20;;;;;;;;;;6276675;22;20267;-88
2023/06/28 05:59:07;;;;;;;1.35;1.25;;;;;;;;;;6276453;22;20235;-89
2023/06/28 06:01:35;;;;;;;1.45;1.27;;;;;;;;;;6276798;22;20244;-89
2023/06/28 06:04:03;;;;;;;1.08;1.02;;;;;;;;;;6276792;22;20259;-89
2023/06/28 06:06:30;;;;;;;1.35;1.25;;;;;;;;;;6276361;22;20274;-89
2023/06/28 06:08:57;;;;;;;1.23;1.13;;;;;;;;;;6276236;22;20191;-89
2023/06/28 06:11:25;;;;;;;1.20;1.15;;;;;;;;;;6276672;22;20255;-88
2023/06/28 06:13:52;;;;;;;1.55;1.45;;;;;;;;;;6276298;22;20168;-88
2023/06/28 06:16:21;;;;;;;1.23;1.13;;;;;;;;;;6276232;22;20231;-88
2023/06/28 06:18:49;;;;;;;1.23;1.10;;;;;;;;;;6276131;22;20179;-89
2023/06/28 06:21:16;;;;;;;1.38;1.27;;;;;;;;;;6276076;22;20256;-88
2023/06/28 06:23:44;;;;;;;1.15;1.10;;;;;;;;;;6276549;22;20551;-89
2023/06/28 06:26:11;;;;;;;2.00;1.35;;;;;;;;;;6276470;22;20199;-90
2023/06/28 06:28:39;;;;;;;1.30;1.20;;;;;;;;;;6276413;22;20588;-89
2023/06/28 06:31:06;;;;;;;1.90;1.52;;;;;;;;;;6276759;22;20255;-88
2023/06/28 06:33:36;;;;;;;1.40;1.30;;;;;;;;;;6276403;22;20247;-89
2023/06/28 06:36:03;;;;;;;2.85;1.65;;;;;;;;;;6276166;22;20207;-90
2023/06/28 06:38:37;;;;;;;2.67;1.80;;;;;;;;;;6276692;22;20253;-88
2023/06/28 06:41:05;;;;;;;1.92;1.63;;;;;;;;;;6277150;22;20191;-90
2023/06/28 06:43:32;;;;;;;2.80;2.20;;;;;;;;;;6276970;22;20243;-90
2023/06/28 06:46:00;;;;;;;2.33;1.60;;;;;;;;;;6276261;22;20628;-89
2023/06/28 06:48:28;;;;;;;3.25;2.10;;;;;;;;;;6275964;22;20192;-89
2023/06/28 06:50:58;;;;;;;4.60;1.55;;;;;;;;;;6275967;22;20180;-89
2023/06/28 06:53:25;;;;;;;3.97;1.50;;;;;;;;;;6276318;22;20251;-89
2023/06/28 06:55:53;;;;;;;1.55;1.45;;;;;;;;;;6275397;22;20577;-90
2023/06/28 06:58:20;;;;;;;1.50;1.40;;;;;;;;;;6276465;22;20203;-89
2023/06/28 07:00:48;;;;;;;1.85;1.10;;;;;;;;;;6276834;22;20200;-89
2023/06/28 07:03:15;;;;;;;0.90;0.90;;;;;;;;;;6277149;22;20164;-89
2023/06/28 07:05:43;;;;;;;1.30;1.20;;;;;;;;;;6276086;22;20204;-90
2023/06/28 07:08:12;;;;;;;1.73;1.25;;;;;;;;;;6276097;22;20231;-89
2023/06/28 07:10:40;;;;;;;2.92;1.17;;;;;;;;;;6275872;22;20188;-90
2023/06/28 07:13:09;;;;;;;1.73;1.48;;;;;;;;;;6276305;22;20207;-90
2023/06/28 07:15:36;;;;;;;1.38;1.15;;;;;;;;;;6275565;22;20622;-91
2023/06/28 07:18:04;;;;;;;1.60;1.30;;;;;;;;;;6275987;22;20561;-90
2023/06/28 07:20:31;;;;;;;2.28;1.15;;;;;;;;;;6275694;22;20172;-90
2023/06/28 07:22:59;;;;;;;4.18;1.65;;;;;;;;;;6275617;22;20192;-90
2023/06/28 07:25:28;;;;;;;2.00;1.42;;;;;;;;;;6275567;22;20195;-90
2023/06/28 07:27:56;;;;;;;2.47;1.40;;;;;;;;;;6275574;22;20645;-90
2023/06/28 07:30:23;;;;;;;1.75;1.52;;;;;;;;;;6275688;22;20203;-90
2023/06/28 07:32:51;;;;;;;5.40;2.13;;;;;;;;;;6275844;22;20204;-89
2023/06/28 07:35:19;;;;;;;1.55;1.38;;;;;;;;;;6275709;22;20551;-90
2023/06/28 07:37:47;;;;;;;1.15;1.13;;;;;;;;;;6276519;22;20521;-90
2023/06/28 07:40:16;;;;;;;1.20;1.10;;;;;;;;;;6277388;22;20172;-90
2023/06/28 07:42:45;;;;;;;2.15;1.10;;;;;;;;;;6276326;22;20239;-91
2023/06/28 07:45:12;;;;;;;6.65;2.75;;;;;;;;;;6276889;22;20169;-90
2023/06/28 07:47:41;;;;;;;1.10;1.00;;;;;;;;;;6278010;22;20211;-91
2023/06/28 07:50:12;;;;;;;1.75;1.17;;;;;;;;;;6276662;22;20645;-92
2023/06/28 07:52:39;;;;;;;1.33;1.23;;;;;;;;;;6277522;22;20160;-92
2023/06/28 07:55:10;;;;;;;1.48;1.35;;;;;;;;;;6278351;22;20169;-92
2023/06/28 07:57:38;;;;;;;2.53;2.33;;;;;;;;;;6280628;22;20669;-92
2023/06/28 08:00:10;;;;;;;1.48;1.10;;;;;;;;;;6284090;22;20168;-92
2023/06/28 08:02:38;;;;;;;2.05;1.20;;;;;;;;;;6280134;22;20179;-93
2023/06/28 08:05:07;;;;;;;1.50;1.40;;;;;;;;;;6281767;22;20516;-93
2023/06/28 08:07:35;;;;;;;1.38;1.15;;;;;;;;;;6282398;22;20192;-92
2023/06/28 08:10:03;;;;;;;1.23;1.13;;;;;;;;;;6281127;22;20221;-91
2023/06/28 08:12:31;;;;;;;4.65;1.52;;;;;;;;;;6275641;22;20187;-91
2023/06/28 08:14:58;;;;;;;2.08;1.13;;;;;;;;;;6276375;22;20204;-90
2023/06/28 08:17:27;;;;;;;2.25;1.58;;;;;;;;;;6276853;22;20196;-91
2023/06/28 08:19:55;;;;;;;1.40;1.30;;;;;;;;;;6276393;22;20179;-91
2023/06/28 08:22:22;;;;;;;1.10;0.90;;;;;;;;;;6276409;22;20611;-91
2023/06/28 08:24:50;;;;;;;0.60;0.60;;;;;;;;;;6277067;22;20222;-91
2023/06/28 08:27:18;;;;;;;1.40;1.00;;;;;;;;;;6277712;22;20188;-90
2023/06/28 08:29:45;;;;;;;1.27;0.88;;;;;;;;;;6277093;22;20216;-92
2023/06/28 08:32:13;;;;;;;0.93;0.88;;;;;;;;;;6277278;22;20639;-91
2023/06/28 08:34:41;;;;;;;1.40;1.20;;;;;;;;;;6277401;22;20176;-91
2023/06/28 08:37:09;;;;;;;0.88;0.88;;;;;;;;;;6277670;22;20235;-91
2023/06/28 08:39:37;;;;;;;1.15;1.10;;;;;;;;;;6278884;22;20208;-91
2023/06/28 08:42:06;;;;;;;1.30;1.10;;;;;;;;;;6277054;22;20168;-91
2023/06/28 08:44:35;;;;;;;1.35;0.95;;;;;;;;;;6279141;22;20478;-91
2023/06/28 08:47:02;;;;;;;1.00;0.90;;;;;;;;;;6277712;22;20220;-91
2023/06/28 08:49:30;;;;;;;0.98;0.90;;;;;;;;;;6277625;22;20203;-92
2023/06/28 08:51:59;;;;;;;1.00;1.00;;;;;;;;;;6277715;22;20192;-91
2023/06/28 08:54:28;;;;;;;2.13;1.10;;;;;;;;;;6277421;22;20196;-92
2023/06/28 08:56:57;;;;;;;1.60;1.20;;;;;;;;;;6277086;22;20192;-91
2023/06/28 08:59:25;;;;;;;0.70;0.70;;;;;;;;;;6277280;22;20168;-92
2023/06/28 09:01:55;;;;;;;1.25;0.95;;;;;;;;;;6277148;22;20571;-91
2023/06/28 09:04:23;;;;;;;3.17;1.52;;;;;;;;;;6277378;22;20172;-91
2023/06/28 09:06:51;;;;;;;1.13;1.05;;;;;;;;;;6277702;22;20761;-92
2023/06/28 09:09:21;;;;;;;1.08;0.68;;;;;;;;;;6277183;22;20275;-91
2023/06/28 09:11:48;;;;;;;1.17;0.88;;;;;;;;;;6277652;22;20203;-92
2023/06/28 09:14:16;;;;;;;1.65;1.15;;;;;;;;;;6277775;22;20233;-90
2023/06/28 09:16:43;;;;;;;1.20;1.00;;;;;;;;;;6277193;22;20192;-91
2023/06/28 09:19:11;;;;;;;1.95;0.82;;;;;;;;;;6277208;22;20207;-91
2023/06/28 09:21:39;;;;;;;0.73;0.73;;;;;;;;;;6277261;22;20192;-90
2023/06/28 09:24:12;;;;;;;1.55;1.45;;;;;;;;;;6276996;22;20579;-91
2023/06/28 09:26:44;;;;;;;1.63;0.95;;;;;;;;;;6276783;22;20192;-90
2023/06/28 09:29:13;;;;;;;1.83;1.20;;;;;;;;;;6276835;22;20189;-90
2023/06/28 09:31:41;;;;;;;2.35;1.17;;;;;;;;;;6276861;22;20165;-90
2023/06/28 09:34:09;;;;;;;1.98;1.35;;;;;;;;;;6277024;22;20192;-90
2023/06/28 09:36:37;;;;;;;6.28;1.50;;;;;;;;;;6277557;22;20196;-91
2023/06/28 09:39:07;;;;;;;2.15;1.15;;;;;;;;;;6276937;22;20179;-90
2023/06/28 09:41:41;;;;;;;0.98;0.95;;;;;;;;;;6277326;22;20171;-90
2023/06/28 09:44:10;;;;;;;1.45;0.90;;;;;;;;;;6276847;22;20153;-90
2023/06/28 09:46:44;;;;;;;0.80;0.80;;;;;;;;;;6277049;22;20617;-91
2023/06/28 09:49:21;;;;;;;3.05;1.83;;;;;;;;;;6276785;22;20184;-90
2023/06/28 09:51:58;;;;;;;1.55;1.40;;;;;;;;;;6277157;22;20168;-90
2023/06/28 09:54:33;;;;;;;1.58;1.48;;;;;;;;;;6277014;22;20239;-90
2023/06/28 09:57:03;;;;;;;1.35;1.25;;;;;;;;;;6276637;22;20528;-90
2023/06/28 09:59:34;;;;;;;0.77;0.77;;;;;;;;;;6277200;22;20192;-90
2023/06/28 10:02:06;;;;;;;1.00;1.00;;;;;;;;;;6277062;22;20533;-90
2023/06/28 10:04:35;;;;;;;1.33;1.23;;;;;;;;;;6276674;22;20153;-90
2023/06/28 10:07:05;;;;;;;0.80;0.80;;;;;;;;;;6276758;22;20192;-90
2023/06/28 10:09:37;;;;;;;5.07;1.17;;;;;;;;;;6277750;22;20192;-90
2023/06/28 10:12:12;;;;;;;1.02;0.90;;;;;;;;;;6276427;22;20164;-91
2023/06/28 10:14:45;;;;;;;1.20;1.10;;;;;;;;;;6276703;22;20153;-91
2023/06/28 10:17:13;;;;;;;1.33;1.10;;;;;;;;;;6276833;22;20196;-91
2023/06/28 10:19:40;;;;;;;0.90;0.90;;;;;;;;;;6276540;22;20175;-91
2023/06/28 10:22:08;;;;;;;1.00;0.90;;;;;;;;;;6276627;22;20195;-91
2023/06/28 10:24:38;;;;;;;1.98;1.48;;;;;;;;;;6276297;22;20196;-90
2023/06/28 10:27:08;;;;;;;6.32;1.17;;;;;;;;;;6276699;22;20643;-90
2023/06/28 10:29:35;;;;;;;2.90;1.35;;;;;;;;;;6276140;22;20204;-91
2023/06/28 10:32:04;;;;;;;1.17;1.17;;;;;;;;;;6276152;22;20175;-89
2023/06/28 10:34:32;;;;;;;1.23;1.08;;;;;;;;;;6276368;22;20192;-90
2023/06/28 10:37:00;;;;;;;1.52;1.42;;;;;;;;;;6275648;22;20686;-90
2023/06/28 10:39:27;;;;;;;1.73;1.08;;;;;;;;;;6276087;22;20251;-91
2023/06/28 10:41:58;;;;;;;2.65;1.52;;;;;;;;;;6276285;22;20164;-91
2023/06/28 10:44:27;;;;;;;1.10;1.00;;;;;;;;;;6276329;22;20243;-90
2023/06/28 10:47:10;;;;;;;1.20;1.10;;;;;;;;;;6276138;22;20697;-90
2023/06/28 10:49:40;;;;;;;0.95;0.93;;;;;;;;;;6276261;22;20172;-90
2023/06/28 10:52:14;;;;;;;0.90;0.90;;;;;;;;;;6276111;22;20184;-89
2023/06/28 10:54:42;;;;;;;1.27;1.17;;;;;;;;;;6276637;22;20191;-90
2023/06/28 10:57:14;;;;;;;1.75;0.98;;;;;;;;;;6276284;22;20263;-90
2023/06/28 10:59:43;;;;;;;1.08;1.00;;;;;;;;;;6276311;22;20173;-90
2023/06/28 11:02:11;;;;;;;1.25;1.08;;;;;;;;;;6276132;22;20200;-90
2023/06/28 11:04:51;;;;;;;0.80;0.80;;;;;;;;;;6276067;22;20187;-92
2023/06/28 11:07:28;;;;;;;1.00;0.90;;;;;;;;;;6276016;22;20246;-92
2023/06/28 11:10:14;;;;;;;1.83;1.10;;;;;;;;;;6276150;22;20212;-91
2023/06/28 11:12:42;;;;;;;1.20;1.08;;;;;;;;;;6275957;22;20172;-91
2023/06/28 11:15:14;;;;;;;1.88;1.50;;;;;;;;;;6276167;22;20619;-92
2023/06/28 11:17:42;;;;;;;1.25;1.13;;;;;;;;;;6276707;22;20590;-92
2023/06/28 11:20:13;;;;;;;0.93;0.93;;;;;;;;;;6276095;22;20253;-91
2023/06/28 11:22:50;;;;;;;1.27;1.17;;;;;;;;;;6275965;22;20161;-91
2023/06/28 11:25:18;;;;;;;1.48;1.38;;;;;;;;;;6276222;22;20207;-91
2023/06/28 11:27:47;;;;;;;1.00;0.90;;;;;;;;;;6275619;22;20184;-89
2023/06/28 11:30:18;;;;;;;2.40;1.40;;;;;;;;;;6275708;22;20646;-92
2023/06/28 11:32:46;;;;;;;1.30;1.20;;;;;;;;;;6276080;22;20230;-89
2023/06/28 11:35:13;;;;;;;1.30;1.20;;;;;;;;;;6276097;22;20203;-90
2023/06/28 11:37:41;;;;;;;1.30;1.20;;;;;;;;;;6279355;22;20264;-92
2023/06/28 11:40:10;;;;;;;1.00;1.00;;;;;;;;;;6305607;22;20145;-93
2023/06/28 11:42:45;;;;;;;0.90;0.90;;;;;;;;;;6306131;22;20141;-94
2023/06/28 11:45:21;;;;;;;1.77;0.85;;;;;;;;;;6305597;22;20140;-93
2023/06/28 11:47:48;;;;;;;0.88;0.88;;;;;;;;;;6305415;22;20140;-92
2023/06/28 11:50:16;;;;;;;0.90;0.90;;;;;;;;;;6305525;22;20164;-92
2023/06/28 11:52:48;;;;;;;0.90;0.90;;;;;;;;;;6305672;22;20149;-92
2023/06/28 11:55:16;;;;;;;1.15;1.08;;;;;;;;;;6305670;22;20141;-94
2023/06/28 11:57:45;;;;;;;1.20;1.10;;;;;;;;;;6305209;22;20160;-93
2023/06/28 12:00:14;;;;;;;1.20;1.10;;;;;;;;;;6305635;22;20168;-92
2023/06/28 12:02:50;;;;;;;1.08;1.02;;;;;;;;;;6305685;22;20145;-93
2023/06/28 12:05:19;;;;;;;1.00;0.95;;;;;;;;;;6305504;22;20140;-93
2023/06/28 12:07:47;;;;;;;1.30;1.20;;;;;;;;;;6304988;22;20145;-93
2023/06/28 12:10:16;;;;;;;1.38;1.27;;;;;;;;;;6305430;22;20160;-92
2023/06/28 12:12:43;;;;;;;0.90;0.90;;;;;;;;;;6305492;22;20149;-92
2023/06/28 12:15:14;;;;;;;1.10;1.00;;;;;;;;;;6305579;22;20145;-93
2023/06/28 12:17:43;;;;;;;1.35;1.23;;;;;;;;;;6306830;22;20145;-92
2023/06/28 12:20:14;;;;;;;1.30;1.20;;;;;;;;;;6307300;22;20156;-94
2023/06/28 12:22:43;;;;;;;1.38;1.17;;;;;;;;;;6307445;22;20150;-93
2023/06/28 12:25:11;;;;;;;1.20;1.00;;;;;;;;;;6307464;22;20148;-93
2023/06/28 12:27:39;;;;;;;2.00;1.15;;;;;;;;;;6307174;22;20149;-92
2023/06/28 12:30:12;;;;;;;1.65;1.30;;;;;;;;;;6307343;22;20149;-93
2023/06/28 12:32:46;;;;;;;1.30;1.20;;;;;;;;;;6307378;22;20147;-93
2023/06/28 12:35:26;;;;;;;1.20;1.10;;;;;;;;;;6307357;22;20184;-93
2023/06/28 12:37:55;;;;;;;0.98;0.98;;;;;;;;;;6306938;22;20156;-92
2023/06/28 12:40:24;;;;;;;1.13;1.13;;;;;;;;;;6307292;22;20149;-92
2023/06/28 12:43:13;;;;;;;1.00;1.00;;;;;;;;;;6307079;22;20152;-94
2023/06/28 12:45:46;;;;;;;1.77;1.67;;;;;;;;;;6305560;22;20149;-93
2023/06/28 12:48:16;;;;;;;0.93;0.93;;;;;;;;;;6305420;22;20184;-92
2023/06/28 12:50:45;;;;;;;1.35;1.27;;;;;;;;;;6305437;22;20199;-91
2023/06/28 12:53:13;;;;;;;1.20;1.20;;;;;;;;;;6305502;22;20159;-90
2023/06/28 12:55:41;;;;;;;1.00;0.98;;;;;;;;;;6305594;22;20148;-92
2023/06/28 12:58:10;;;;;;;1.25;1.10;;;;;;;;;;6305160;22;20192;-91
2023/06/28 13:00:38;;;;;;;1.00;0.98;;;;;;;;;;6304759;22;20148;-92
2023/06/28 13:03:10;;;;;;;1.10;1.10;;;;;;;;;;6304393;22;20161;-91
2023/06/28 13:05:38;;;;;;;1.42;1.33;;;;;;;;;;6305131;22;20156;-91
2023/06/28 13:08:09;;;;;;;2.05;1.05;;;;;;;;;;6304907;22;20184;-91
2023/06/28 13:10:37;;;;;;;1.83;1.60;;;;;;;;;;6305475;22;20176;-92
2023/06/28 13:13:05;;;;;;;1.05;1.05;;;;;;;;;;6305381;22;20175;-92
2023/06/28 13:15:32;;;;;;;1.13;1.02;;;;;;;;;;6304734;22;20152;-90
2023/06/28 13:18:00;;;;;;;1.63;1.52;;;;;;;;;;6304409;22;20180;-91
2023/06/28 13:20:27;;;;;;;1.08;0.85;;;;;;;;;;6304902;22;20156;-91
2023/06/28 13:22:55;;;;;;;1.23;1.13;;;;;;;;;;6305056;22;20156;-91
2023/06/28 13:25:26;;;;;;;1.00;1.00;;;;;;;;;;6305131;22;20157;-92
2023/06/28 13:27:53;;;;;;;1.30;0.90;;;;;;;;;;6304756;22;20180;-91
2023/06/28 13:30:22;;;;;;;0.93;0.93;;;;;;;;;;6305087;22;20153;-92
2023/06/28 13:32:52;;;;;;;1.33;1.30;;;;;;;;;;6305016;22;20175;-91
2023/06/28 13:35:20;;;;;;;1.15;1.15;;;;;;;;;;6305137;22;20220;-91
2023/06/28 13:37:48;;;;;;;1.30;1.15;;;;;;;;;;6304502;22;20168;-92
2023/06/28 13:40:17;;;;;;;1.38;1.15;;;;;;;;;;6305167;22;20164;-91
2023/06/28 13:42:47;;;;;;;1.27;1.17;;;;;;;;;;6305178;22;20239;-91
2023/06/28 13:45:14;;;;;;;1.63;1.52;;;;;;;;;;6304849;22;20168;-92
2023/06/28 13:47:42;;;;;;;1.15;1.05;;;;;;;;;;6304852;22;20175;-93
2023/06/28 13:50:10;;;;;;;1.13;1.13;;;;;;;;;;6304881;22;20172;-92
2023/06/28 13:52:38;;;;;;;1.00;1.00;;;;;;;;;;6305231;22;20168;-92
2023/06/28 13:55:06;;;;;;;1.70;1.60;;;;;;;;;;6304904;22;20152;-93
2023/06/28 13:57:34;;;;;;;1.20;1.10;;;;;;;;;;6304527;22;20179;-92
2023/06/28 14:00:04;;;;;;;1.42;1.33;;;;;;;;;;6304974;22;20157;-91
2023/06/28 14:02:32;;;;;;;1.08;1.00;;;;;;;;;;6304928;22;20171;-91
2023/06/28 14:04:59;;;;;;;1.33;1.23;;;;;;;;;;6304841;22;20145;-92
2023/06/28 14:07:27;;;;;;;1.50;1.40;;;;;;;;;;6304582;22;20223;-92
2023/06/28 14:09:54;;;;;;;0.90;0.90;;;;;;;;;;6304892;22;20169;-91
2023/06/28 14:12:22;;;;;;;1.45;1.38;;;;;;;;;;6304761;22;20175;-92
2023/06/28 14:14:50;;;;;;;1.45;1.35;;;;;;;;;;6304647;22;20157;-92
2023/06/28 14:17:19;;;;;;;1.10;1.02;;;;;;;;;;6304433;22;20169;-92
2023/06/28 14:19:46;;;;;;;1.48;1.38;;;;;;;;;;6304536;22;20168;-91
2023/06/28 14:22:14;;;;;;;1.13;1.10;;;;;;;;;;6304694;22;20159;-93
2023/06/28 14:24:42;;;;;;;3.13;1.38;;;;;;;;;;6304718;22;20141;-91
2023/06/28 14:27:09;;;;;;;1.05;1.05;;;;;;;;;;6304431;22;20153;-93
2023/06/28 14:29:37;;;;;;;0.93;0.93;;;;;;;;;;6303463;22;20156;-91
2023/06/28 14:32:05;;;;;;;1.55;1.45;;;;;;;;;;6304481;22;20168;-89
2023/06/28 14:34:35;;;;;;;1.00;1.00;;;;;;;;;;6304601;22;20192;-92
2023/06/28 14:37:02;;;;;;;1.00;1.00;;;;;;;;;;6304393;22;20160;-92
2023/06/28 14:39:30;;;;;;;1.83;1.20;;;;;;;;;;6304084;22;20153;-93
2023/06/28 14:41:58;;;;;;;1.00;1.00;;;;;;;;;;6304271;22;20161;-91
2023/06/28 14:44:25;;;;;;;1.38;1.27;;;;;;;;;;6304475;22;20152;-93
2023/06/28 14:46:53;;;;;;;2.13;2.03;;;;;;;;;;6304433;22;20144;-92
2023/06/28 14:49:21;;;;;;;1.08;1.08;;;;;;;;;;6304004;22;20198;-92
2023/06/28 14:51:50;;;;;;;1.30;1.20;;;;;;;;;;6304243;22;20164;-91